YFC weather

Fredericton Airport
Fredericton, New Brunswick, Canada

Public forecast

Using degrees Celsius for public forecast. Weather courtesy of forecast.io.

METAR (pilot weather report)

Retrieved 2019/04/21 16:00 UTC (6 minutes ago):

CYFC 211600Z AUTO 17010G16KT 9SM OVC007 13/ A3009 RMK SLP190

TAF (pilot weather forecast)

Retrieved 2019/04/21 12:42 UTC (3 hours ago):

TAF CYFC 211140Z 2112/2124 VRB03KT 1/4SM FG VV003 TEMPO 2112/2115 3SM -RA -DZ BR FEW003 OVC008 BECMG 2113/2115 19012KT FM211500 19012KT 5SM -RA BR OVC008 TEMPO 2115/2124 P6SM NSW OVC010 RMK FCST BASED ON AUTO OBS. NXT FCST BY 211800Z